Time;durP1;ratioP1;P1;durP2;ratioP2;P2;SDS_P1;SDS_P2;PMS_P1;PMS_P2;Temp;Humidity;BMP_temperature;BMP_pressure;BME280_temperature;BME280_humidity;BME280_pressure;Samples;Min_cycle;Max_cycle;Signal;HPM_P1;HPM_P2
2023/10/23 00:00:38;;;;;;;0.00;0.00;;;;;;;8.19;100.00;101207.50;5113707;28;20534;-40
2023/10/23 00:03:03;;;;;;;0.00;0.00;;;;;;;8.19;100.00;101201.28;5115221;28;20053;-38
2023/10/23 00:05:28;;;;;;;0.00;0.00;;;;;;;8.15;100.00;101198.06;5115985;28;20115;-40
2023/10/23 00:07:54;;;;;;;0.00;0.00;;;;;;;8.12;100.00;101207.28;5127442;27;20081;-39
2023/10/23 00:10:19;;;;;;;0.00;0.00;;;;;;;8.09;100.00;101212.13;5115831;28;20417;-40
2023/10/23 00:12:44;;;;;;;0.00;0.00;;;;;;;8.05;100.00;101214.25;5117084;28;20083;-40
2023/10/23 00:15:10;;;;;;;0.00;0.00;;;;;;;8.01;100.00;101215.56;5119295;28;20501;-40
2023/10/23 00:17:35;;;;;;;0.00;0.00;;;;;;;8.00;100.00;101211.19;5119005;28;20061;-41
2023/10/23 00:20:04;;;;;;;0.00;0.00;;;;;;;7.96;100.00;101217.88;5115968;28;20036;-41
2023/10/23 00:22:29;;;;;;;0.00;0.00;;;;;;;7.92;100.00;101216.50;5114188;28;20053;-40
2023/10/23 00:24:55;;;;;;;0.00;0.00;;;;;;;7.91;100.00;101214.81;5114187;28;20027;-39
2023/10/23 00:27:20;;;;;;;0.00;0.00;;;;;;;7.90;100.00;101216.66;5115114;28;20043;-39
2023/10/23 00:29:45;;;;;;;0.00;0.00;;;;;;;7.87;100.00;101219.66;5114382;28;20031;-39
2023/10/23 00:32:11;;;;;;;0.00;0.00;;;;;;;7.85;100.00;101216.28;5115258;28;20593;-39
2023/10/23 00:34:36;;;;;;;0.00;0.00;;;;;;;7.81;100.00;101214.06;5116708;28;20039;-39
2023/10/23 00:37:01;;;;;;;0.00;0.00;;;;;;;7.81;100.00;101209.53;5118023;28;20102;-40
2023/10/23 00:39:27;;;;;;;0.00;0.00;;;;;;;7.81;100.00;101208.72;5107668;28;20101;-38
2023/10/23 00:41:52;;;;;;;0.00;0.00;;;;;;;7.76;100.00;101217.19;5117311;28;20074;-39
2023/10/23 00:44:17;;;;;;;0.00;0.00;;;;;;;7.73;100.00;101211.31;5121333;28;20035;-40
2023/10/23 00:46:43;;;;;;;0.00;0.00;;;;;;;7.68;100.00;101209.94;5120301;28;20027;-40
2023/10/23 00:49:09;;;;;;;0.00;0.00;;;;;;;7.68;100.00;101211.78;5120665;28;20030;-39
2023/10/23 00:51:35;;;;;;;0.00;0.00;;;;;;;7.65;100.00;101220.13;5120496;28;20040;-40
2023/10/23 00:54:00;;;;;;;0.00;0.00;;;;;;;7.60;100.00;101217.91;5100544;28;20062;-40
2023/10/23 00:56:26;;;;;;;0.00;0.00;;;;;;;7.60;100.00;101223.25;5117880;28;20132;-39
2023/10/23 00:58:52;;;;;;;0.00;0.00;;;;;;;7.56;100.00;101229.09;5118238;28;20032;-40
2023/10/23 01:01:17;;;;;;;0.00;0.00;;;;;;;7.51;100.00;101234.06;5118939;28;20054;-38
2023/10/23 01:03:43;;;;;;;0.00;0.00;;;;;;;7.47;100.00;101237.03;5121457;28;20047;-39
2023/10/23 01:06:09;;;;;;;0.00;0.00;;;;;;;7.44;100.00;101236.50;5103297;28;20107;-39
2023/10/23 01:08:35;;;;;;;0.00;0.00;;;;;;;7.44;100.00;101231.13;5119811;28;20031;-40
2023/10/23 01:11:00;;;;;;;0.00;0.00;;;;;;;7.41;100.00;101231.44;5117984;28;20104;-38
2023/10/23 01:13:27;;;;;;;0.00;0.00;;;;;;;7.40;100.00;101235.13;5116543;28;20048;-40
2023/10/23 01:15:52;;;;;;;0.00;0.00;;;;;;;7.39;100.00;101246.81;5116395;28;20057;-40
2023/10/23 01:18:18;;;;;;;0.00;0.00;;;;;;;7.38;100.00;101240.63;5096693;28;20046;-39
2023/10/23 01:20:44;;;;;;;0.00;0.00;;;;;;;7.38;100.00;101250.50;5115570;28;20428;-38
2023/10/23 01:23:10;;;;;;;0.00;0.00;;;;;;;7.35;100.00;101248.97;5119678;28;20031;-40
2023/10/23 01:25:36;;;;;;;0.00;0.00;;;;;;;7.34;100.00;101244.59;5117300;28;20413;-40
2023/10/23 01:28:02;;;;;;;0.00;0.00;;;;;;;7.33;100.00;101242.06;5115610;28;20323;-39
2023/10/23 01:30:28;;;;;;;0.00;0.00;;;;;;;7.32;100.00;101238.56;5098682;28;20050;-39
2023/10/23 01:32:53;;;;;;;0.00;0.00;;;;;;;7.30;100.00;101231.66;5113333;28;20030;-40
2023/10/23 01:35:19;;;;;;;0.00;0.00;;;;;;;7.29;100.00;101238.00;5113098;28;20032;-39
2023/10/23 01:37:45;;;;;;;0.00;0.00;;;;;;;7.28;100.00;101239.00;5114197;28;20077;-40
2023/10/23 01:40:11;;;;;;;0.00;0.00;;;;;;;7.25;100.00;101235.63;5113165;28;20054;-41
2023/10/23 01:42:36;;;;;;;0.00;0.00;;;;;;;7.25;100.00;101229.44;5113580;28;20055;-41
2023/10/23 01:45:02;;;;;;;0.00;0.00;;;;;;;7.25;100.00;101218.72;5110957;27;20023;-39
2023/10/23 01:47:27;;;;;;;0.00;0.00;;;;;;;7.23;100.00;101229.56;5098177;28;20468;-37
2023/10/23 01:49:53;;;;;;;0.00;0.00;;;;;;;7.24;100.00;101228.59;5112249;28;20028;-40
2023/10/23 01:52:19;;;;;;;0.00;0.00;;;;;;;7.23;100.00;101229.56;5112950;28;20032;-40
2023/10/23 01:54:44;;;;;;;0.00;0.00;;;;;;;7.25;100.00;101229.44;5107363;28;20036;-40
2023/10/23 01:57:10;;;;;;;0.00;0.00;;;;;;;7.24;100.00;101227.72;5122204;28;20228;-39
2023/10/23 01:59:36;;;;;;;0.00;0.00;;;;;;;7.21;100.00;101234.25;5121392;28;20031;-40
2023/10/23 02:02:02;;;;;;;0.00;0.00;;;;;;;7.17;100.00;101232.88;5119671;28;20051;-39
2023/10/23 02:04:28;;;;;;;0.00;0.00;;;;;;;7.18;100.00;101239.91;5112946;28;20085;-40
2023/10/23 02:06:53;;;;;;;0.00;0.00;;;;;;;7.18;100.00;101239.06;5111559;28;20486;-40
2023/10/23 02:09:19;;;;;;;0.00;0.00;;;;;;;7.14;100.00;101243.88;5112758;28;20080;-39
2023/10/23 02:11:44;;;;;;;0.00;0.00;;;;;;;7.07;100.00;101233.91;5112259;28;20035;-40
2023/10/23 02:14:10;;;;;;;0.00;0.00;;;;;;;7.06;100.00;101242.91;5111993;28;20493;-40
2023/10/23 02:16:35;;;;;;;0.00;0.00;;;;;;;7.04;100.00;101249.28;5111893;28;20231;-39
2023/10/23 02:19:00;;;;;;;0.00;0.00;;;;;;;7.03;100.00;101238.75;5110808;28;20080;-40
2023/10/23 02:21:26;;;;;;;0.00;0.00;;;;;;;7.01;100.00;101243.38;5109578;28;20023;-38
2023/10/23 02:23:51;;;;;;;0.00;0.00;;;;;;;6.99;100.00;101240.84;5112215;28;20020;-39
2023/10/23 02:26:17;;;;;;;0.00;0.00;;;;;;;7.02;100.00;101247.75;5110548;28;20027;-38
2023/10/23 02:28:42;;;;;;;0.00;0.00;;;;;;;6.98;100.00;101252.56;5111825;28;20658;-40
2023/10/23 02:31:07;;;;;;;0.00;0.00;;;;;;;6.99;100.00;101246.19;5109568;28;20046;-38
2023/10/23 02:33:33;;;;;;;0.00;0.00;;;;;;;6.97;100.00;101252.69;5110762;28;20023;-38
2023/10/23 02:35:58;;;;;;;0.00;0.00;;;;;;;6.96;100.00;101251.03;5110923;28;20030;-39
2023/10/23 02:38:23;;;;;;;0.00;0.00;;;;;;;6.96;100.00;101251.03;5111685;28;20047;-39
2023/10/23 02:40:52;;;;;;;0.00;0.00;;;;;;;6.94;100.00;101253.00;5109170;28;20041;-40
2023/10/23 02:43:18;;;;;;;0.00;0.00;;;;;;;6.94;100.00;101255.66;5109739;28;20030;-40
2023/10/23 02:45:44;;;;;;;0.00;0.00;;;;;;;6.92;100.00;101261.16;5112029;28;20031;-39
2023/10/23 02:48:09;;;;;;;0.00;0.00;;;;;;;6.87;100.00;101259.91;5110551;28;20028;-39
2023/10/23 02:50:34;;;;;;;0.00;0.00;;;;;;;6.84;100.00;101249.50;5112237;28;20102;-38
2023/10/23 02:53:00;;;;;;;0.00;0.00;;;;;;;6.85;100.00;101249.38;5112234;28;20054;-39
2023/10/23 02:55:26;;;;;;;0.00;0.00;;;;;;;6.82;100.00;101249.69;5112601;28;20334;-40
2023/10/23 02:57:52;;;;;;;0.00;0.00;;;;;;;6.79;100.00;101245.47;5110617;28;20028;-39
2023/10/23 03:00:18;;;;;;;0.00;0.00;;;;;;;6.77;100.00;101255.47;5111859;28;20473;-39
2023/10/23 03:02:44;;;;;;;0.00;0.00;;;;;;;6.76;100.00;101251.09;5111701;28;20074;-38
2023/10/23 03:05:09;;;;;;;0.00;0.00;;;;;;;6.77;100.00;101252.78;5115998;28;20036;-39
2023/10/23 03:07:35;;;;;;;0.00;0.00;;;;;;;6.75;100.00;101253.94;5117463;28;20557;-40
2023/10/23 03:10:00;;;;;;;0.00;0.00;;;;;;;6.75;100.00;101265.47;5116888;28;20463;-40
2023/10/23 03:12:26;;;;;;;0.00;0.00;;;;;;;6.72;100.00;101264.94;5115202;28;20082;-39
2023/10/23 03:14:52;;;;;;;0.00;0.00;;;;;;;6.69;100.00;101271.41;5112144;28;20122;-38
2023/10/23 03:17:17;;;;;;;0.00;0.00;;;;;;;6.69;100.00;101275.88;5110956;28;21131;-40
2023/10/23 03:19:42;;;;;;;0.00;0.00;;;;;;;6.67;100.00;101265.34;5111468;28;20028;-40
2023/10/23 03:22:08;;;;;;;0.00;0.00;;;;;;;6.68;100.00;101269.69;5111238;28;20035;-40
2023/10/23 03:24:33;;;;;;;0.00;0.00;;;;;;;6.69;100.00;101271.41;5111176;28;20028;-39
2023/10/23 03:26:58;;;;;;;0.00;0.00;;;;;;;6.69;100.00;101268.72;5110803;28;20042;-41
2023/10/23 03:29:24;;;;;;;0.00;0.00;;;;;;;6.70;100.00;101273.09;5111515;28;20118;-40
2023/10/23 03:31:49;;;;;;;0.00;0.00;;;;;;;6.68;100.00;101275.06;5110286;28;20100;-39
2023/10/23 03:34:14;;;;;;;0.00;0.00;;;;;;;6.66;100.00;101269.03;5112645;28;20379;-39
2023/10/23 03:36:40;;;;;;;0.00;0.00;;;;;;;6.68;100.00;101269.69;5117856;28;20394;-39
2023/10/23 03:39:05;;;;;;;0.00;0.00;;;;;;;6.67;100.00;101262.69;5117569;28;20019;-39
2023/10/23 03:41:31;;;;;;;0.00;0.00;;;;;;;6.68;100.00;101275.06;5117378;28;20024;-39
2023/10/23 03:43:56;;;;;;;0.00;0.00;;;;;;;6.65;100.00;101267.31;5113306;28;20583;-40
2023/10/23 03:46:21;;;;;;;0.00;0.00;;;;;;;6.66;100.00;101270.84;5111726;28;20028;-40
2023/10/23 03:48:47;;;;;;;0.00;0.00;;;;;;;6.68;100.00;101269.69;5111692;28;20031;-40
2023/10/23 03:51:12;;;;;;;0.00;0.00;;;;;;;6.70;100.00;101267.72;5111634;28;20066;-41
2023/10/23 03:53:37;;;;;;;0.00;0.00;;;;;;;6.73;100.00;101278.13;5110261;27;20045;-41
2023/10/23 03:56:06;;;;;;;0.00;0.00;;;;;;;6.80;100.00;101278.41;5108774;28;20027;-39
2023/10/23 03:58:31;;;;;;;0.00;0.00;;;;;;;6.86;100.00;101287.69;5109353;28;20038;-40
2023/10/23 04:00:57;;;;;;;0.00;0.00;;;;;;;6.93;100.00;101283.44;5106524;28;20336;-40
2023/10/23 04:03:22;;;;;;;0.00;0.00;;;;;;;7.02;100.00;101280.69;5109332;28;20047;-40
2023/10/23 04:05:47;;;;;;;0.00;0.00;;;;;;;7.08;100.00;101283.75;5108696;28;20031;-40
2023/10/23 04:08:14;;;;;;;0.00;0.00;;;;;;;7.17;100.00;101275.69;5108529;28;20027;-39
2023/10/23 04:10:46;;;;;;;0.00;0.00;;;;;;;7.27;100.00;101286.34;5106698;28;20271;-39
2023/10/23 04:13:12;;;;;;;0.10;0.10;;;;;;;7.37;100.00;101280.94;5100158;28;20050;-40
2023/10/23 04:15:37;;;;;;;0.00;0.00;;;;;;;7.48;100.00;101286.09;5090719;28;20478;-40
2023/10/23 04:18:02;;;;;;;0.00;0.00;;;;;;;7.54;100.00;101282.81;5106245;28;20034;-39
2023/10/23 04:20:29;;;;;;;0.00;0.00;;;;;;;7.59;100.00;101283.19;5108608;28;20020;-40
2023/10/23 04:22:54;;;;;;;0.00;0.00;;;;;;;7.68;100.00;101286.78;5109167;28;20051;-40
2023/10/23 04:25:20;;;;;;;0.00;0.00;;;;;;;7.73;100.00;101292.53;5107550;28;20055;-40
2023/10/23 04:27:45;;;;;;;0.10;0.10;;;;;;;7.80;100.00;101293.63;5108412;28;20527;-37
2023/10/23 04:30:11;;;;;;;0.10;0.10;;;;;;;7.84;100.00;101286.09;5072833;28;20031;-41
2023/10/23 04:32:36;;;;;;;0.20;0.20;;;;;;;7.89;100.00;101286.47;5108306;28;20035;-41
2023/10/23 04:35:02;;;;;;;0.10;0.10;;;;;;;7.93;100.00;101292.41;5091212;28;20123;-41
2023/10/23 04:37:27;;;;;;;0.88;0.52;;;;;;;7.92;100.00;101283.50;5114396;28;20059;-40
2023/10/23 04:39:52;;;;;;;0.95;0.60;;;;;;;7.94;100.00;101289.56;5114750;28;20020;-40
2023/10/23 04:42:18;;;;;;;0.40;0.40;;;;;;;7.96;100.00;101294.78;5113221;28;20036;-39
2023/10/23 04:44:46;;;;;;;0.30;0.30;;;;;;;7.97;100.00;101289.25;5113600;28;20031;-40
2023/10/23 04:47:12;;;;;;;0.00;0.00;;;;;;;8.03;100.00;101299.38;5113400;28;20024;-40
2023/10/23 04:49:37;;;;;;;0.13;0.10;;;;;;;8.08;100.00;101297.06;5114534;28;20077;-39
2023/10/23 04:52:03;;;;;;;0.50;0.50;;;;;;;8.12;100.00;101295.75;5112766;28;20032;-39
2023/10/23 04:54:28;;;;;;;0.20;0.20;;;;;;;8.17;100.00;101294.44;5112646;28;20460;-41
2023/10/23 04:56:53;;;;;;;0.57;0.43;;;;;;;8.10;100.00;101295.03;5109485;28;20453;-40
2023/10/23 04:59:19;;;;;;;1.48;1.05;;;;;;;8.16;100.00;101295.44;5109661;28;20019;-41
2023/10/23 05:01:44;;;;;;;0.82;0.80;;;;;;;8.03;100.00;101287.78;5112205;28;20027;-41
2023/10/23 05:04:09;;;;;;;0.50;0.50;;;;;;;8.00;100.00;101288.09;5108232;28;20074;-39
2023/10/23 05:06:36;;;;;;;0.43;0.43;;;;;;;8.02;100.00;101296.81;5112759;28;20053;-42
2023/10/23 05:09:02;;;;;;;0.20;0.20;;;;;;;7.94;100.00;101294.91;5113270;28;20456;-40
2023/10/23 05:11:27;;;;;;;0.00;0.00;;;;;;;7.94;100.00;101292.22;5114024;28;20036;-38
2023/10/23 05:13:53;;;;;;;0.25;0.20;;;;;;;7.98;100.00;101298.97;5112528;28;20102;-40
2023/10/23 05:16:18;;;;;;;0.32;0.30;;;;;;;8.02;100.00;101302.19;5111764;28;20111;-41
2023/10/23 05:18:44;;;;;;;0.60;0.60;;;;;;;7.97;100.00;101299.97;5117095;28;20051;-40
2023/10/23 05:21:10;;;;;;;0.55;0.50;;;;;;;7.93;100.00;101301.28;5110864;28;20102;-40
2023/10/23 05:23:36;;;;;;;0.05;0.00;;;;;;;7.95;100.00;101288.53;5086629;28;20381;-40
2023/10/23 05:26:02;;;;;;;1.08;0.98;;;;;;;7.94;100.00;101288.72;5110432;27;20031;-41
2023/10/23 05:28:27;;;;;;;1.70;1.20;;;;;;;7.88;100.00;101300.91;5111714;28;20067;-39
2023/10/23 05:30:53;;;;;;;0.93;0.82;;;;;;;7.84;100.00;101294.97;5109620;28;20028;-38
2023/10/23 05:33:19;;;;;;;0.50;0.50;;;;;;;7.86;100.00;101303.72;5103472;28;20017;-39
2023/10/23 05:35:45;;;;;;;0.05;0.03;;;;;;;7.89;100.00;101297.22;5106012;28;20100;-41
2023/10/23 05:38:10;;;;;;;0.30;0.30;;;;;;;7.93;100.00;101308.47;5112095;28;20028;-40
2023/10/23 05:40:35;;;;;;;0.10;0.10;;;;;;;7.99;100.00;101300.66;5112738;28;20354;-38
2023/10/23 05:43:01;;;;;;;1.00;0.90;;;;;;;8.02;100.00;101297.66;5111211;28;20089;-39
2023/10/23 05:45:26;;;;;;;1.63;1.27;;;;;;;8.01;100.00;101301.34;5112990;28;20032;-40
2023/10/23 05:47:51;;;;;;;0.52;0.52;;;;;;;8.03;100.00;101304.72;5102113;28;20032;-41
2023/10/23 05:50:17;;;;;;;0.32;0.22;;;;;;;8.02;100.00;101303.03;5113796;27;20042;-39
2023/10/23 05:52:43;;;;;;;0.57;0.50;;;;;;;8.06;100.00;101300.91;5114030;28;20038;-39
2023/10/23 05:55:08;;;;;;;1.30;0.90;;;;;;;8.08;100.00;101302.44;5114135;28;20028;-42
2023/10/23 05:57:34;;;;;;;0.85;0.85;;;;;;;8.03;100.00;101299.38;5086580;28;20431;-40
2023/10/23 05:59:59;;;;;;;0.30;0.28;;;;;;;8.06;100.00;101295.53;5102600;28;20028;-40
2023/10/23 06:02:25;;;;;;;0.08;0.08;;;;;;;8.11;100.00;101303.97;5107586;28;20059;-41
2023/10/23 06:04:51;;;;;;;0.30;0.20;;;;;;;8.18;100.00;101301.47;5106115;28;20024;-39
2023/10/23 06:07:16;;;;;;;0.20;0.20;;;;;;;8.22;100.00;101302.88;5108496;28;20023;-40
2023/10/23 06:09:41;;;;;;;0.10;0.10;;;;;;;8.24;100.00;101293.69;5107624;28;20038;-40
2023/10/23 06:12:09;;;;;;;1.08;0.98;;;;;;;8.30;100.00;101300.25;5107777;28;20377;-40
2023/10/23 06:14:34;;;;;;;0.00;0.00;;;;;;;8.30;100.00;101301.09;5105200;28;20024;-41
2023/10/23 06:16:59;;;;;;;0.30;0.20;;;;;;;8.38;100.00;101304.84;5105672;28;20069;-40
2023/10/23 06:19:25;;;;;;;0.57;0.52;;;;;;;8.42;100.00;101309.75;5106150;28;20062;-40
2023/10/23 06:21:50;;;;;;;0.20;0.20;;;;;;;8.38;100.00;101303.00;5106414;28;20071;-40
2023/10/23 06:24:15;;;;;;;0.38;0.32;;;;;;;8.43;100.00;101311.44;5105243;28;20035;-40
2023/10/23 06:26:41;;;;;;;0.00;0.00;;;;;;;8.50;100.00;101312.47;5106174;28;20066;-42
2023/10/23 06:29:06;;;;;;;0.45;0.43;;;;;;;8.58;100.00;101319.75;5109886;28;20035;-41
2023/10/23 06:31:31;;;;;;;0.10;0.10;;;;;;;8.56;100.00;101311.03;5108165;28;20035;-40
2023/10/23 06:33:57;;;;;;;0.00;0.00;;;;;;;8.62;100.00;101312.25;5109983;28;20694;-40
2023/10/23 06:36:22;;;;;;;0.00;0.00;;;;;;;8.67;100.00;101308.09;5091295;28;20039;-41
2023/10/23 06:38:48;;;;;;;0.10;0.10;;;;;;;8.69;100.00;101303.41;5096828;27;20023;-40
2023/10/23 06:41:13;;;;;;;0.30;0.30;;;;;;;8.67;100.00;101307.25;5071725;28;20032;-40
2023/10/23 06:43:39;;;;;;;0.68;0.68;;;;;;;8.54;100.00;101308.50;5110327;28;20034;-39
2023/10/23 06:46:04;;;;;;;0.60;0.60;;;;;;;8.39;100.00;101304.69;5106463;28;20069;-39
2023/10/23 06:48:30;;;;;;;0.10;0.10;;;;;;;8.41;100.00;101300.03;5110058;28;20028;-40
2023/10/23 06:50:55;;;;;;;0.47;0.45;;;;;;;8.39;100.00;101303.81;5106913;28;20448;-41
2023/10/23 06:53:21;;;;;;;0.98;0.88;;;;;;;8.25;100.00;101298.03;5109538;28;20038;-41
2023/10/23 06:55:53;;;;;;;0.00;0.00;;;;;;;8.37;100.00;101295.91;5109270;28;20444;-40
2023/10/23 06:58:19;;;;;;;0.55;0.45;;;;;;;8.43;100.00;101298.03;5117716;27;20401;-40
2023/10/23 07:00:45;;;;;;;0.05;0.05;;;;;;;8.36;100.00;101299.63;5107009;28;20031;-38
2023/10/23 07:03:10;;;;;;;0.40;0.40;;;;;;;8.35;100.00;101300.63;5107339;28;20051;-40
2023/10/23 07:05:36;;;;;;;0.30;0.30;;;;;;;8.40;100.00;101301.03;5106381;28;20496;-40
2023/10/23 07:08:01;;;;;;;0.40;0.40;;;;;;;8.49;100.00;101309.97;5108745;28;20386;-39
2023/10/23 07:10:26;;;;;;;0.55;0.55;;;;;;;8.57;100.00;101313.53;5107613;28;20060;-40
2023/10/23 07:12:52;;;;;;;0.30;0.30;;;;;;;8.62;100.00;101309.56;5110425;28;20028;-41
2023/10/23 07:15:17;;;;;;;0.63;0.60;;;;;;;8.64;100.00;101307.56;5109717;27;20051;-41
2023/10/23 07:17:43;;;;;;;0.60;0.60;;;;;;;8.72;100.00;101300.41;5089286;28;20066;-39
2023/10/23 07:20:08;;;;;;;0.10;0.10;;;;;;;8.79;100.00;101305.97;5104368;27;20545;-40
2023/10/23 07:22:34;;;;;;;0.95;0.82;;;;;;;8.84;100.00;101316.22;5105369;28;20502;-40
2023/10/23 07:24:59;;;;;;;0.50;0.50;;;;;;;8.91;100.00;101312.75;5107367;28;20027;-39
2023/10/23 07:27:25;;;;;;;0.38;0.30;;;;;;;8.91;100.00;101312.75;5108482;28;20068;-41
2023/10/23 07:29:51;;;;;;;0.70;0.68;;;;;;;9.01;100.00;101310.78;5104743;28;20668;-42
2023/10/23 07:32:16;;;;;;;0.20;0.20;;;;;;;9.13;100.00;101314.03;5105736;27;20020;-42
2023/10/23 07:34:42;;;;;;;0.00;0.00;;;;;;;9.20;100.00;101316.91;5085719;28;20082;-40
2023/10/23 07:37:07;;;;;;;0.38;0.38;;;;;;;9.20;100.00;101324.97;5084085;28;20047;-40
2023/10/23 07:39:32;;;;;;;0.20;0.15;;;;;;;9.29;100.00;101326.69;5103271;28;20042;-38
2023/10/23 07:41:58;;;;;;;0.32;0.32;;;;;;;9.20;100.00;101320.44;5105310;28;20115;-40
2023/10/23 07:44:24;;;;;;;0.40;0.40;;;;;;;9.26;100.00;101318.94;5105952;28;20046;-40
2023/10/23 07:46:49;;;;;;;0.40;0.40;;;;;;;9.29;100.00;101313.25;5106448;28;20888;-39
2023/10/23 07:49:16;;;;;;;0.25;0.25;;;;;;;9.40;100.00;101315.66;5107692;28;20478;-40
2023/10/23 07:51:41;;;;;;;0.38;0.38;;;;;;;9.40;100.00;101326.41;5108225;27;20749;-42
2023/10/23 07:54:07;;;;;;;0.32;0.32;;;;;;;9.48;100.00;101327.41;5103098;28;20363;-39
2023/10/23 07:56:32;;;;;;;0.20;0.20;;;;;;;9.51;100.00;101319.06;5104016;27;20059;-41
2023/10/23 07:58:58;;;;;;;0.00;0.00;;;;;;;9.59;100.00;101319.91;5104988;27;20048;-39
2023/10/23 08:01:24;;;;;;;0.08;0.08;;;;;;;9.69;100.00;101314.41;5104511;28;20454;-39
2023/10/23 08:03:49;;;;;;;0.00;0.00;;;;;;;9.88;100.00;101311.41;5083165;28;20122;-38
2023/10/23 08:06:15;;;;;;;0.00;0.00;;;;;;;9.90;100.00;101305.88;5098831;27;20126;-40
2023/10/23 08:08:41;;;;;;;0.00;0.00;;;;;;;9.92;100.00;101305.69;5101072;28;20516;-40
2023/10/23 08:11:10;;;;;;;0.10;0.10;;;;;;;9.97;100.00;101301.50;5101746;28;20084;-41
2023/10/23 08:13:36;;;;;;;0.00;0.00;;;;;;;10.03;100.00;101299.97;5106933;28;20457;-39
2023/10/23 08:16:03;;;;;;;0.00;0.00;;;;;;;10.13;100.00;101292.59;5088212;28;20020;-40
2023/10/23 08:18:29;;;;;;;0.00;0.00;;;;;;;10.09;100.00;101296.63;5103824;28;20485;-41
2023/10/23 08:20:54;;;;;;;0.00;0.00;;;;;;;10.00;100.00;101297.63;5107858;28;20031;-39
2023/10/23 08:23:19;;;;;;;0.00;0.00;;;;;;;9.96;100.00;101304.38;5110505;28;20043;-40
2023/10/23 08:25:45;;;;;;;0.00;0.00;;;;;;;9.91;100.00;101304.84;5106669;28;20512;-40
2023/10/23 08:28:10;;;;;;;0.03;0.03;;;;;;;9.96;100.00;101299.00;5107694;28;20023;-41
2023/10/23 08:30:36;;;;;;;0.00;0.00;;;;;;;9.97;100.00;101300.66;5106199;28;20172;-39
2023/10/23 08:33:03;;;;;;;0.00;0.00;;;;;;;10.02;100.00;101306.38;5109061;28;20063;-41
2023/10/23 08:35:28;;;;;;;0.00;0.00;;;;;;;10.03;100.00;101308.03;5116550;28;20119;-41
2023/10/23 08:37:54;;;;;;;0.00;0.00;;;;;;;10.10;100.00;101301.00;5120382;28;20066;-41
2023/10/23 08:40:20;;;;;;;0.00;0.00;;;;;;;10.20;100.00;101299.00;5116682;28;20039;-40
2023/10/23 08:42:46;;;;;;;0.00;0.00;;;;;;;10.32;100.00;101295.00;5089318;28;20042;-41
2023/10/23 08:45:13;;;;;;;0.10;0.00;;;;;;;10.36;100.00;101297.34;5105714;28;20031;-39
2023/10/23 08:47:38;;;;;;;0.00;0.00;;;;;;;10.47;100.00;101297.81;5090229;28;20078;-41
2023/10/23 08:50:04;;;;;;;0.00;0.00;;;;;;;10.66;100.00;101290.38;5108029;28;20079;-41
2023/10/23 08:52:43;;;;;;;0.00;0.00;;;;;;;10.60;100.00;101291.91;5103062;28;20458;-40
2023/10/23 08:55:11;;;;;;;0.00;0.00;;;;;;;10.65;100.00;101286.84;5103385;28;20054;-39
2023/10/23 08:57:39;;;;;;;0.00;0.00;;;;;;;10.59;100.00;101295.63;5114985;28;20061;-40
2023/10/23 09:00:06;;;;;;;0.00;0.00;;;;;;;10.63;100.00;101296.13;5091657;28;20361;-40
2023/10/23 09:02:32;;;;;;;0.00;0.00;;;;;;;10.72;100.00;101295.09;5095631;28;20071;-38
2023/10/23 09:04:58;;;;;;;0.00;0.00;;;;;;;10.73;100.00;101294.06;5093483;28;20084;-40
2023/10/23 09:07:23;;;;;;;0.00;0.00;;;;;;;10.75;100.00;101298.28;5114320;28;20039;-41
2023/10/23 09:09:48;;;;;;;0.00;0.00;;;;;;;10.86;100.00;101296.25;5117565;27;20027;-40
2023/10/23 09:12:54;;;;;;;0.00;0.00;;;;;;;10.76;100.00;101283.78;5121996;27;20028;-40
2023/10/23 09:15:21;;;;;;;0.00;0.00;;;;;;;10.73;100.00;101286.84;5035738;28;20079;-40
2023/10/23 09:17:49;;;;;;;0.00;0.00;;;;;;;10.81;100.00;101280.59;5098417;28;20040;-40
2023/10/23 09:20:24;;;;;;;0.00;0.00;;;;;;;10.86;100.00;101274.69;5116429;27;20465;-42
2023/10/23 09:22:52;;;;;;;0.00;0.00;;;;;;;10.66;100.00;101268.84;5108588;27;20111;-41
2023/10/23 09:25:18;;;;;;;0.00;0.00;;;;;;;10.51;100.00;101264.19;5110078;27;20077;-41
2023/10/23 09:27:44;;;;;;;0.00;0.00;;;;;;;10.41;100.00;101276.16;5112820;28;20044;-40
2023/10/23 09:30:10;;;;;;;0.00;0.00;;;;;;;10.33;100.00;101261.69;5112554;28;20205;-39
2023/10/23 09:32:36;;;;;;;0.00;0.00;;;;;;;10.24;100.00;101265.38;5112940;28;20418;-38
2023/10/23 09:35:02;;;;;;;0.00;0.00;;;;;;;10.43;100.00;101269.59;5130419;27;20113;-40
2023/10/23 09:37:29;;;;;;;0.00;0.00;;;;;;;10.52;100.00;101265.03;5121453;27;20030;-39
2023/10/23 09:39:59;;;;;;;0.00;0.00;;;;;;;10.56;100.00;101269.06;5112933;28;20023;-39
2023/10/23 09:42:32;;;;;;;0.00;0.00;;;;;;;10.59;100.00;101263.31;5114038;27;20493;-39
2023/10/23 09:44:59;;;;;;;0.00;0.00;;;;;;;10.65;100.00;101268.00;5107416;27;20674;-40
2023/10/23 09:47:29;;;;;;;0.00;0.00;;;;;;;10.76;100.00;101269.50;5094377;28;20067;-40
2023/10/23 09:49:55;;;;;;;0.00;0.00;;;;;;;10.62;100.00;101272.91;5112961;27;20477;-40
2023/10/23 09:52:24;;;;;;;0.00;0.00;;;;;;;10.71;100.00;101267.31;5113157;27;20038;-41
2023/10/23 09:54:50;;;;;;;0.00;0.00;;;;;;;10.46;100.00;101269.22;5107376;28;20032;-40
2023/10/23 09:57:17;;;;;;;0.00;0.00;;;;;;;10.48;100.00;101263.69;5109466;28;20105;-42
2023/10/23 09:59:48;;;;;;;0.00;0.00;;;;;;;10.57;100.00;101265.34;5107015;28;20036;-40
2023/10/23 10:02:18;;;;;;;0.00;0.00;;;;;;;10.72;100.00;101262.78;5125832;27;20051;-39
2023/10/23 10:05:07;;;;;;;0.00;0.00;;;;;;;10.74;100.00;101261.59;5095632;28;20020;-39
2023/10/23 10:07:43;;;;;;;0.00;0.00;;;;;;;10.75;100.00;101262.44;5093479;28;20027;-39
2023/10/23 10:10:09;;;;;;;0.00;0.00;;;;;;;10.81;100.00;101261.75;5112938;27;20058;-38
2023/10/23 10:12:37;;;;;;;0.00;0.00;;;;;;;10.73;100.00;101259.06;5112156;28;20482;-40
2023/10/23 10:15:03;;;;;;;0.00;0.00;;;;;;;10.79;100.00;101263.75;5101129;28;20031;-41
2023/10/23 10:17:29;;;;;;;0.00;0.00;;;;;;;10.69;100.00;101258.59;5101055;28;20036;-40
2023/10/23 10:19:56;;;;;;;0.00;0.00;;;;;;;10.64;100.00;101260.13;5120452;28;20522;-38
2023/10/23 10:22:26;;;;;;;0.00;0.00;;;;;;;10.54;100.00;101260.31;5110521;28;20046;-40
2023/10/23 10:24:52;;;;;;;0.00;0.00;;;;;;;10.55;100.00;101254.75;5104436;27;20035;-39
2023/10/23 10:27:18;;;;;;;0.00;0.00;;;;;;;10.56;100.00;101255.59;5125999;27;20032;-40
2023/10/23 10:29:43;;;;;;;0.00;0.00;;;;;;;10.50;100.00;101261.66;5095237;28;20054;-39
2023/10/23 10:32:10;;;;;;;0.00;0.00;;;;;;;10.58;100.00;101242.78;5107941;28;20027;-39
2023/10/23 10:34:37;;;;;;;0.00;0.00;;;;;;;10.65;100.00;101246.47;5113314;28;20129;-38
2023/10/23 10:37:05;;;;;;;0.00;0.00;;;;;;;10.51;100.00;101250.72;5110957;27;20358;-39
2023/10/23 10:39:52;;;;;;;0.00;0.00;;;;;;;10.61;100.00;101239.78;5098325;28;20020;-39
2023/10/23 10:42:19;;;;;;;0.00;0.00;;;;;;;10.83;100.00;101237.34;5111612;27;20020;-40
2023/10/23 10:45:02;;;;;;;0.00;0.00;;;;;;;10.87;100.00;101242.19;5113796;28;20111;-39
2023/10/23 10:47:38;;;;;;;0.00;0.00;;;;;;;10.86;100.00;101237.00;5095522;28;20108;-41
2023/10/23 10:50:05;;;;;;;0.00;0.00;;;;;;;10.92;100.00;101231.75;5106865;28;20035;-40
2023/10/23 10:52:35;;;;;;;0.00;0.00;;;;;;;11.07;100.00;101228.31;5130668;27;20477;-40
2023/10/23 10:55:04;;;;;;;0.00;0.00;;;;;;;11.12;100.00;101223.25;5115569;27;20497;-38
2023/10/23 10:57:29;;;;;;;0.00;0.00;;;;;;;11.15;100.00;101220.19;5112314;28;20059;-39
2023/10/23 10:59:55;;;;;;;0.00;0.00;;;;;;;11.10;100.00;101218.03;5109004;28;20485;-39
2023/10/23 11:02:22;;;;;;;0.00;0.00;;;;;;;11.14;100.00;101202.38;5097163;28;20036;-39
2023/10/23 11:04:47;;;;;;;0.00;0.00;;;;;;;11.05;100.00;101206.94;5113943;27;20439;-40
2023/10/23 11:07:13;;;;;;;0.00;0.00;;;;;;;11.15;100.00;101199.47;5125672;27;20027;-42
2023/10/23 11:09:38;;;;;;;0.00;0.00;;;;;;;11.17;100.00;101202.84;5112852;27;20035;-40
2023/10/23 11:12:06;;;;;;;0.00;0.00;;;;;;;11.23;100.00;101195.06;5119258;27;20046;-40
2023/10/23 11:14:31;;;;;;;;;;;;;;;11.15;100.00;101188.72;5113157;28;20166;-39
2023/10/23 11:16:56;;;;;;;0.00;0.00;;;;;;;11.15;100.00;101188.72;5109493;27;20384;-38
2023/10/23 11:19:22;;;;;;;0.00;0.00;;;;;;;11.17;100.00;101181.28;5117752;27;21471;-41